MMVA 090548Z 08008KT 6SM SCT060 25/23 A2993 RMK SLP134 57006 956 8/030 HZY= 090548

MMVA 090446Z 00000KT 6SM SKC 25/24 A2995 RMK HZY= 090447

MMVA 090344Z 00000KT 6SM SKC 25/25 A2996 RMK HZY= 090345

MMVA 090250Z 00000KT 6SM SKC 25/24 A2995 RMK SLP140 52013 957= 090251

MMVA 090142Z 00000KT 7SM SKC 25/23 A2994= 090142

MMVA 090054Z 00000KT 6SM SKC 25/24 A2993 RMK HZY= 090055

MMVA 082345Z 00000KT 6SM SCT017TCU 28/23 A2991 RMK SLP127 52003 953 8/200= 082346

MMVA 082244Z 00000KT 6SM SCT018TCU 29/24 A2990 RMK 8/200= 082244

MMVA 082144Z 00000KT 6SM BKN017TCU 30/23 A2989 RMK 8/200= 082145

MMVA 082044Z 00000KT 6SM SCT016TCU 31/24 A2990 RMK SLP124 57030 900 8/200 HZY= 082045

MMVA 081940Z 00000KT 7SM BKN015 BKN020 30/22 A2991 RMK 8/800 HZY= 081941

MMVA 081840Z 00000KT 7SM BKN015 30/22 A2995 RMK 8/500 HZY CUFRA= 081840

MMVA 081740Z 00000KT 7SM FEW010 BKN015 29/22 A2999 RMK SLP154 57009 900 8/500 STFRA CI= 081741

MMVA 081654Z 00000KT 7SM SCT015 29/23 A3001 RMK 8/500 STFRA CI MSGTX MMMX= 081654

MMVA 081441Z 00000KT 7SM FEW250 26/23 A3002 RMK SLP163 52026 902 8/001 SC= 081441

MMVA 081340Z 00000KT 7SM SKC 24/23 A3000 RMK SC CI= 081341

MMVA 081240Z 00000KT 7SM SKC 22/22 A2997 RMK ISOL SC CI= 081240

MMVA 081145Z 00000KT 5SM SKC 23/23 A2994 RMK SLP137 5//// 957= 081146

MMVA 081102Z RTD 00000KT 4SM SKC 22/22 A2993 RMK HZY RTS= 081102

MMVA 080543Z 00000KT 6SM SKC 24/23 A2995 RMK SLP140 57007 903 HZY= 080544

MMVA 080443Z 00000KT 6SM SKC 25/23 A2997 RMK HZY= 080444

MMVA 080346Z 00000KT 7SM SKC 25/23 A2997= 080347

MMVA 080244Z 00000KT 7SM SKC 24/23 A2997 RMK SLP147 52017 907= 080245

MMVA 080143Z 00000KT 7SM SKC 24/23 A2995= 080144

MMVA 080044Z 00000KT 7SM SKC 25/23 A2993= 080044

MMVA 072345Z 00000KT 7SM SCT220 28/23 A2992 RMK SLP130 52006 903 8/001 TCU S= 072346

MMVA 072246Z 06006KT 7SM FEW018 SCT230 30/23 A2990 RMK 8/101= 072246

MMVA 072143Z 04006KT 7SM SCT018 31/23 A2990 RMK 8/100= 072143

MMVA 072042Z 07009KT 7SM SCT017 31/23 A2990 RMK SLP124 57030 900 8/100= 072043

MMVA 071940Z 10010KT 5SM SCT015 31/23 A2992 RMK 8/500 HZY= 071940

MMVA 071853Z 00000KT 3SM FU HZ SCT015 29/24 A2994 RMK 8/500 TWR VIS CUFRA SFC VSBY 1SM RTS= 071854

MMVA 071740Z 00000KT 3SM FU HZ SCT010 BKN015 27/24 A2999 RMK SLP154 57007 903 8/500 TWR VIS STFRA SFC VSBY 1SM= 071741

SPECI MMVA 071720Z 00000KT 3SM FU HZ SCT007 BKN015 27/24 A3000 RMK 8/500 TWR VIS STFRA SFC VSBY 1SM= 071721

MMVA 071643Z 00000KT 1 3/4SM BR HZ OVC005 26/24 A3002 RMK 8/5// TWR VIS SFC VSBY 3/4SM= 071645

COR MMVA 071543Z 00000KT 1 1/4SM FU HZ FEW001 BKN003 OVC005 24/23 A3002 RMK 8/5// LWR SFC VSBY= 071559

COR MMVA 071543Z 00000KT 1 1/4SM FU HZ BKN003 OVC005 BKN080TCU 24/23 A3002 RMK 8/5// LWR SFC VSBY= 071554

MMVA 071543Z 00000KT 1 1/4SM FU HZ BKN003 OVC005 BKN080TCU 24/23 A3002 RMK 8/5// LWR SFC VSBY= 071550

MMVA 071440Z 00000KT 1SM BR HZ BKN002 23/23 A3001 RMK SLP161 52017 900 8/500 STFRA BC FG OVR RWY 08 FG TOP 001= 071444

SPECI MMVA 071422Z 00000KT 1/2SM FG VV001 23/23 A3000 RMK 8//// FG DSPTG= 071423

SPECI MMVA 071413Z 00000KT 3/8SM 2/22 A3000 RMK 8////= 071413

MMVA 071340Z 00000KT 3/16SM FG VV002 22/22 A2999 RMK 8////= 071340

MMVA 071240Z 00000KT 1/8SM FG VV002 21/21 A2998 RMK 8////= 071240

SPECI MMVA 071222Z 00000KT 3/16SM FG VV002 21/21 A2997 RMK 8//// VRB CONDS= 071222

SPECI MMVA 071213Z 00000KT 1/2SM FG BKN005 21/21 A2997 RMK 8/500 INCRG FG MVG N= 071214

MMVA 071145Z 00000KT 5SM SKC 20/20 A2996 RMK SLP144 5//// 953 HZY= 071147

MMVA 071106Z RTD 00000KT 5SM SKC 21/21 A2995 RMK HZY RTS= 071106

MMVA 070545Z 06007KT 6SM SKC 24/23 A2994 RMK SLP137 57003 970 HZY= 070546

MMVA 070444Z 06006KT 7SM SKC 25/23 A2995 RMK HZY= 070445

MMVA 070343Z 07006KT 7SM SKC 24/23 A2995 RMK HZY= 070343

MMVA 070243Z 07008KT 7SM SKC 24/23 A2995 RMK SLP140 52013 964= 070243